createdAt,value
2023-04-13T00:01:59.319Z,99.90
2023-04-13T00:04:46.238Z,99.90
2023-04-13T00:07:34.981Z,99.90
2023-04-13T00:10:22.189Z,99.90
2023-04-13T00:13:10.700Z,99.90
2023-04-13T00:15:57.292Z,99.90
2023-04-13T00:18:45.178Z,99.90
2023-04-13T00:21:31.360Z,99.90
2023-04-13T00:24:19.779Z,99.90
2023-04-13T00:27:06.233Z,99.90
2023-04-13T00:29:56.222Z,99.90
2023-04-13T00:32:44.094Z,99.90
2023-04-13T00:35:30.590Z,99.90
2023-04-13T00:38:18.131Z,99.90
2023-04-13T00:41:06.341Z,99.90
2023-04-13T00:43:53.619Z,99.90
2023-04-13T00:46:42.368Z,99.90
2023-04-13T00:49:30.487Z,99.90
2023-04-13T00:52:18.191Z,99.90
2023-04-13T00:55:05.088Z,99.90
2023-04-13T00:57:53.502Z,99.90
2023-04-13T01:00:43.223Z,99.90
2023-04-13T01:03:29.989Z,99.90
2023-04-13T01:06:26.180Z,99.90
2023-04-13T01:09:17.547Z,99.90
2023-04-13T01:12:09.381Z,99.90
2023-04-13T01:15:03.607Z,99.90
2023-04-13T01:17:56.818Z,99.90
2023-04-13T01:20:46.506Z,99.90
2023-04-13T01:23:47.462Z,99.90
2023-04-13T01:26:43.896Z,99.90
2023-04-13T01:29:33.722Z,99.90
2023-04-13T01:32:21.388Z,99.90
2023-04-13T01:35:10.824Z,99.90
2023-04-13T01:37:58.258Z,99.90
2023-04-13T01:40:45.956Z,99.90
2023-04-13T01:43:33.067Z,99.90
2023-04-13T01:46:27.560Z,99.90
2023-04-13T01:49:18.590Z,99.90
2023-04-13T01:52:05.982Z,99.90
2023-04-13T01:54:56.235Z,99.90
2023-04-13T01:57:47.279Z,99.90
2023-04-13T02:00:36.500Z,99.90
2023-04-13T02:03:24.505Z,99.90
2023-04-13T02:06:11.870Z,99.90
2023-04-13T02:08:58.315Z,99.90
2023-04-13T02:11:45.121Z,99.90
2023-04-13T02:14:31.966Z,99.90
2023-04-13T02:17:18.914Z,99.90
2023-04-13T02:20:12.108Z,99.90
2023-04-13T02:22:58.602Z,99.90
2023-04-13T02:25:48.020Z,99.90
2023-04-13T02:28:35.688Z,99.90
2023-04-13T02:31:23.334Z,99.90
2023-04-13T02:34:10.632Z,99.90
2023-04-13T02:36:58.613Z,99.90
2023-04-13T02:39:47.737Z,99.90
2023-04-13T02:42:34.627Z,99.90
2023-04-13T02:45:26.263Z,99.90
2023-04-13T02:48:13.037Z,99.90
2023-04-13T02:50:59.609Z,99.90
2023-04-13T02:53:47.284Z,99.90
2023-04-13T02:56:35.772Z,99.90
2023-04-13T02:59:22.530Z,99.90
2023-04-13T03:02:09.989Z,99.90
2023-04-13T03:04:56.958Z,99.90
2023-04-13T03:07:43.545Z,99.90
2023-04-13T03:10:31.955Z,99.90
2023-04-13T03:13:19.052Z,99.90
2023-04-13T03:16:06.621Z,99.90
2023-04-13T03:18:52.957Z,99.90
2023-04-13T03:21:39.615Z,99.90
2023-04-13T03:24:27.749Z,99.90
2023-04-13T03:27:15.773Z,99.90
2023-04-13T03:30:02.076Z,99.90
2023-04-13T03:32:48.597Z,99.90
2023-04-13T03:35:34.984Z,99.90
2023-04-13T03:38:21.455Z,99.90
2023-04-13T03:41:08.910Z,99.90
2023-04-13T03:43:57.311Z,99.90
2023-04-13T03:46:44.915Z,99.90
2023-04-13T03:49:31.815Z,99.90
2023-04-13T03:52:18.656Z,99.90
2023-04-13T03:55:05.364Z,99.90
2023-04-13T03:57:51.885Z,99.90
2023-04-13T04:00:39.645Z,99.90
2023-04-13T04:03:26.785Z,99.90
2023-04-13T04:06:13.417Z,99.90
2023-04-13T04:09:00.108Z,99.90
2023-04-13T04:11:46.660Z,99.90
2023-04-13T04:14:33.059Z,99.90
2023-04-13T04:17:21.022Z,99.90
2023-04-13T04:20:10.570Z,99.90
2023-04-13T04:23:00.906Z,99.90
2023-04-13T04:25:47.376Z,99.90
2023-04-13T04:28:38.504Z,99.90
2023-04-13T04:31:25.179Z,99.90
2023-04-13T04:34:13.140Z,99.90
2023-04-13T04:37:03.087Z,99.90
2023-04-13T04:39:50.465Z,99.90
2023-04-13T04:42:37.910Z,99.90
2023-04-13T04:45:27.438Z,99.90
2023-04-13T04:48:14.882Z,99.90
2023-04-13T04:51:02.906Z,99.90
2023-04-13T04:53:49.689Z,99.90
2023-04-13T04:56:36.318Z,99.90
2023-04-13T04:59:23.932Z,99.90
2023-04-13T05:02:10.749Z,99.90
2023-04-13T05:04:57.432Z,99.90
2023-04-13T05:07:46.076Z,99.90
2023-04-13T05:10:32.361Z,99.90
2023-04-13T05:13:18.762Z,99.90
2023-04-13T05:16:05.873Z,99.90
2023-04-13T05:18:53.195Z,99.90
2023-04-13T05:21:39.765Z,99.90
2023-04-13T05:24:27.547Z,99.90
2023-04-13T05:27:15.868Z,99.90
2023-04-13T05:30:03.474Z,99.90
2023-04-13T05:32:49.786Z,99.90
2023-04-13T05:35:37.539Z,99.90
2023-04-13T05:38:24.322Z,99.90
2023-04-13T05:41:12.959Z,99.90
2023-04-13T05:43:59.710Z,99.90
2023-04-13T05:46:46.406Z,99.90
2023-04-13T05:49:33.011Z,99.90
2023-04-13T05:52:19.507Z,99.90
2023-04-13T05:55:06.868Z,99.90
2023-04-13T05:57:54.998Z,99.90
2023-04-13T06:00:43.128Z,99.90
2023-04-13T06:03:30.010Z,99.90
2023-04-13T06:06:17.635Z,99.90
2023-04-13T06:09:05.590Z,99.90
2023-04-13T06:11:53.171Z,99.90
2023-04-13T06:14:42.774Z,99.90
2023-04-13T06:17:29.508Z,99.90
2023-04-13T06:20:16.323Z,99.90
2023-04-13T06:23:03.106Z,99.90
2023-04-13T06:25:49.938Z,99.90
2023-04-13T06:28:36.699Z,99.90
2023-04-13T06:31:27.523Z,99.90
2023-04-13T06:34:14.636Z,99.90
2023-04-13T06:37:01.248Z,99.90
2023-04-13T06:39:47.572Z,99.90
2023-04-13T06:42:33.964Z,99.90
2023-04-13T06:45:21.411Z,99.90
2023-04-13T06:48:11.496Z,99.90
2023-04-13T06:50:59.132Z,99.90
2023-04-13T06:53:45.629Z,99.90
2023-04-13T06:56:32.072Z,99.90
2023-04-13T06:59:19.897Z,99.90
2023-04-13T07:02:09.654Z,99.90
2023-04-13T07:04:58.396Z,99.90
2023-04-13T07:07:44.944Z,99.90
2023-04-13T07:10:31.274Z,99.90
2023-04-13T07:13:18.353Z,99.90
2023-04-13T07:16:05.158Z,99.90
2023-04-13T07:18:52.260Z,99.90
2023-04-13T07:21:40.403Z,99.90
2023-04-13T07:24:29.812Z,99.90
2023-04-13T07:27:16.973Z,99.90
2023-04-13T07:30:03.541Z,99.90
2023-04-13T07:32:50.156Z,99.90
2023-04-13T07:35:37.669Z,99.90
2023-04-13T07:38:25.787Z,99.90
2023-04-13T07:41:14.398Z,99.90
2023-04-13T07:44:00.984Z,99.90
2023-04-13T07:46:47.411Z,99.90
2023-04-13T07:49:34.251Z,99.90
2023-04-13T07:52:21.201Z,99.90
2023-04-13T07:55:10.430Z,99.90
2023-04-13T07:57:56.722Z,99.90
2023-04-13T08:00:43.142Z,99.90
2023-04-13T08:03:32.191Z,99.90
2023-04-13T08:06:21.009Z,99.90
2023-04-13T08:09:07.966Z,99.90
2023-04-13T08:11:55.929Z,99.90
2023-04-13T08:14:42.293Z,99.90
2023-04-13T08:17:28.902Z,99.90
2023-04-13T08:20:16.015Z,99.90
2023-04-13T08:23:02.346Z,99.90
2023-04-13T08:25:48.903Z,99.90
2023-04-13T08:28:36.722Z,99.90
2023-04-13T08:31:23.454Z,99.90
2023-04-13T08:34:12.806Z,99.90
2023-04-13T08:36:59.597Z,99.90
2023-04-13T08:39:46.347Z,99.90
2023-04-13T08:42:32.877Z,99.90
2023-04-13T08:45:21.697Z,99.90
2023-04-13T08:48:10.877Z,99.20
2023-04-13T08:51:01.140Z,98.50
2023-04-13T08:53:47.917Z,97.80
2023-04-13T08:56:45.433Z,97.80
2023-04-13T08:59:33.592Z,97.10
2023-04-13T09:02:24.282Z,96.50
2023-04-13T09:05:16.388Z,95.50
2023-04-13T09:08:04.754Z,95.00
2023-04-13T09:10:51.465Z,94.90
2023-04-13T09:13:38.151Z,95.50
2023-04-13T09:16:26.041Z,96.60
2023-04-13T09:19:14.646Z,97.10
2023-04-13T09:22:02.034Z,97.30
2023-04-13T09:24:48.855Z,98.10
2023-04-13T09:27:36.418Z,98.90
2023-04-13T09:30:24.220Z,98.80
2023-04-13T09:33:12.953Z,98.30
2023-04-13T09:36:11.139Z,98.80
2023-04-13T09:38:58.369Z,99.20
2023-04-13T09:41:50.572Z,99.90
2023-04-13T09:44:38.633Z,99.90
2023-04-13T09:47:26.302Z,99.30
2023-04-13T09:50:19.299Z,99.80
2023-04-13T09:53:10.655Z,99.80
2023-04-13T09:56:01.027Z,99.90
2023-04-13T09:58:48.994Z,99.90
2023-04-13T10:01:35.693Z,99.90
2023-04-13T10:04:22.496Z,99.90
2023-04-13T10:07:10.019Z,99.90
2023-04-13T10:09:58.158Z,99.90
2023-04-13T10:12:50.650Z,99.90
2023-04-13T10:15:52.724Z,99.90
2023-04-13T10:18:47.388Z,99.90
2023-04-13T10:21:39.101Z,99.90
2023-04-13T10:24:26.225Z,99.90
2023-04-13T10:27:16.784Z,99.90
2023-04-13T10:30:15.989Z,99.80
2023-04-13T10:33:05.427Z,99.90
2023-04-13T10:35:59.238Z,99.90
2023-04-13T10:38:46.759Z,99.90
2023-04-13T10:41:33.513Z,99.90
2023-04-13T10:44:21.480Z,99.90
2023-04-13T10:47:08.348Z,99.90
2023-04-13T10:49:55.088Z,99.90
2023-04-13T10:52:41.495Z,99.90
2023-04-13T10:55:28.524Z,99.90
2023-04-13T10:58:18.165Z,99.90
2023-04-13T11:01:06.396Z,99.90
2023-04-13T11:04:03.725Z,99.90
2023-04-13T11:06:53.043Z,99.90
2023-04-13T11:09:39.949Z,99.90
2023-04-13T11:12:26.571Z,99.90
2023-04-13T11:15:20.445Z,99.90
2023-04-13T11:18:08.648Z,99.90
2023-04-13T11:20:56.010Z,99.90
2023-04-13T11:23:42.995Z,99.90
2023-04-13T11:26:34.233Z,99.90
2023-04-13T11:29:23.034Z,99.90
2023-04-13T11:32:18.442Z,99.90
2023-04-13T11:35:12.021Z,99.90
2023-04-13T11:37:59.654Z,99.90
2023-04-13T11:40:48.026Z,99.90
2023-04-13T11:43:35.139Z,99.90
2023-04-13T11:46:26.070Z,99.90
2023-04-13T11:49:13.002Z,99.90
2023-04-13T11:52:02.125Z,99.90
2023-04-13T11:54:49.125Z,99.90
2023-04-13T11:57:36.335Z,99.90
2023-04-13T12:00:26.557Z,99.90
2023-04-13T12:03:34.408Z,99.90
2023-04-13T12:06:22.173Z,99.90
2023-04-13T12:09:16.831Z,99.90
2023-04-13T12:12:46.500Z,99.90
2023-04-13T12:15:25.290Z,99.90
2023-04-13T12:18:26.054Z,99.90
2023-04-13T12:21:17.326Z,99.90
2023-04-13T12:24:06.162Z,99.90
2023-04-13T12:29:44.136Z,99.90
2023-04-13T12:32:30.852Z,99.90
2023-04-13T12:35:19.367Z,99.90
2023-04-13T12:38:07.169Z,99.90
2023-04-13T12:40:56.828Z,99.90
2023-04-13T12:43:44.859Z,99.90
2023-04-13T12:46:32.350Z,99.90
2023-04-13T12:49:18.882Z,99.90
2023-04-13T12:52:06.069Z,99.90
2023-04-13T12:54:52.362Z,99.90
2023-04-13T12:57:39.649Z,99.90
2023-04-13T13:00:27.753Z,99.90
2023-04-13T13:03:15.074Z,99.90
2023-04-13T13:06:02.154Z,99.90
2023-04-13T13:08:48.611Z,99.90
2023-04-13T13:11:34.938Z,99.90
2023-04-13T13:14:21.300Z,99.90
2023-04-13T13:17:09.011Z,99.90
2023-04-13T13:19:56.354Z,99.90
2023-04-13T13:22:43.878Z,99.90
2023-04-13T13:25:33.656Z,99.90
2023-04-13T13:28:22.048Z,99.80
2023-04-13T13:31:12.766Z,99.90
2023-04-13T13:34:00.847Z,99.90
2023-04-13T13:36:47.395Z,99.90
2023-04-13T13:39:34.088Z,99.90
2023-04-13T13:42:20.525Z,99.90
2023-04-13T13:45:08.383Z,99.90
2023-04-13T13:47:55.781Z,99.90
2023-04-13T13:50:43.690Z,99.90
2023-04-13T13:53:30.482Z,99.90
2023-04-13T13:56:17.253Z,99.90
2023-04-13T13:59:04.700Z,99.90
2023-04-13T14:01:51.518Z,99.90
2023-04-13T14:04:38.609Z,99.90
2023-04-13T14:07:26.764Z,99.90
2023-04-13T14:10:13.988Z,99.90
2023-04-13T14:13:00.898Z,99.90
2023-04-13T14:15:48.060Z,99.90
2023-04-13T14:18:34.470Z,99.90
2023-04-13T14:21:22.999Z,99.90
2023-04-13T14:24:11.058Z,99.90
2023-04-13T14:26:57.445Z,99.90
2023-04-13T14:29:44.020Z,99.90
2023-04-13T14:32:30.700Z,99.90
2023-04-13T14:35:17.688Z,99.90
2023-04-13T14:38:04.186Z,99.90
2023-04-13T14:40:51.801Z,99.90
2023-04-13T14:43:38.607Z,99.90
2023-04-13T14:46:27.723Z,99.90
2023-04-13T14:49:16.630Z,99.90
2023-04-13T14:52:03.170Z,99.90
2023-04-13T14:54:49.564Z,99.90
2023-04-13T14:57:37.751Z,99.90
2023-04-13T15:00:38.473Z,99.90
2023-04-13T15:03:25.899Z,99.90
2023-04-13T15:06:13.327Z,99.90
2023-04-13T15:09:00.589Z,99.60
2023-04-13T15:11:47.491Z,99.60
2023-04-13T15:14:35.236Z,99.90
2023-04-13T15:17:22.329Z,99.90
2023-04-13T15:20:10.781Z,99.90
2023-04-13T15:22:57.948Z,99.80
2023-04-13T15:25:45.729Z,99.90
2023-04-13T15:28:32.203Z,99.90
2023-04-13T15:31:19.864Z,99.90
2023-04-13T15:34:08.545Z,99.90
2023-04-13T15:36:55.720Z,99.90
2023-04-13T15:39:42.276Z,99.90
2023-04-13T15:42:28.592Z,98.80
2023-04-13T15:45:15.329Z,98.90
2023-04-13T15:48:07.182Z,99.30
2023-04-13T15:50:58.947Z,99.60
2023-04-13T15:53:45.713Z,99.30
2023-04-13T15:56:32.340Z,99.90
2023-04-13T15:59:30.317Z,99.90
2023-04-13T16:02:17.593Z,99.90
2023-04-13T16:05:06.105Z,99.90
2023-04-13T16:07:52.771Z,99.90
2023-04-13T16:10:39.180Z,99.90
2023-04-13T16:13:34.653Z,99.90
2023-04-13T16:16:27.986Z,99.90
2023-04-13T16:19:17.989Z,99.90
2023-04-13T16:22:06.522Z,99.90
2023-04-13T16:24:53.608Z,99.90
2023-04-13T16:27:39.987Z,99.90
2023-04-13T16:30:26.340Z,99.90
2023-04-13T16:33:13.008Z,99.90
2023-04-13T16:35:59.530Z,99.90
2023-04-13T16:38:47.568Z,99.80
2023-04-13T16:44:20.967Z,99.90
2023-04-13T16:47:07.592Z,99.90
2023-04-13T16:49:54.533Z,99.90
2023-04-13T16:52:41.165Z,99.90
2023-04-13T16:55:29.044Z,99.90
2023-04-13T16:58:15.877Z,99.90
2023-04-13T17:01:02.346Z,99.90
2023-04-13T17:03:48.701Z,99.90
2023-04-13T17:06:38.095Z,99.90
2023-04-13T17:09:24.584Z,99.90
2023-04-13T17:12:12.639Z,99.90
2023-04-13T17:14:59.186Z,99.90
2023-04-13T17:17:45.954Z,99.90
2023-04-13T17:20:32.519Z,99.90
2023-04-13T17:23:18.786Z,99.90
2023-04-13T17:26:06.084Z,99.90
2023-04-13T17:28:53.984Z,99.90
2023-04-13T17:31:40.648Z,99.90
2023-04-13T17:34:27.033Z,99.90
2023-04-13T17:37:13.299Z,99.90
2023-04-13T17:40:00.674Z,99.90
2023-04-13T17:42:47.850Z,99.90
2023-04-13T17:45:36.787Z,99.90
2023-04-13T17:48:24.548Z,99.90
2023-04-13T17:51:11.728Z,99.90
2023-04-13T17:53:58.154Z,99.90
2023-04-13T17:56:45.818Z,99.90
2023-04-13T17:59:32.348Z,99.90
2023-04-13T18:02:20.533Z,99.90
2023-04-13T18:05:09.438Z,99.90
2023-04-13T18:07:56.470Z,99.90
2023-04-13T18:10:42.977Z,99.90
2023-04-13T18:13:29.998Z,99.90
2023-04-13T18:16:16.429Z,99.90
2023-04-13T18:19:04.103Z,99.90
2023-04-13T18:21:50.468Z,99.90
2023-04-13T18:24:36.725Z,99.90
2023-04-13T18:27:26.715Z,99.90
2023-04-13T18:30:14.695Z,99.90
2023-04-13T18:33:01.326Z,99.90
2023-04-13T18:35:50.310Z,99.90
2023-04-13T18:38:38.146Z,99.90
2023-04-13T18:41:24.492Z,99.90
2023-04-13T18:44:10.986Z,99.90
2023-04-13T18:46:57.169Z,99.90
2023-04-13T18:49:43.396Z,99.90
2023-04-13T18:52:31.493Z,99.90
2023-04-13T18:55:18.074Z,99.90
2023-04-13T18:58:04.540Z,99.90
2023-04-13T19:00:51.247Z,99.90
2023-04-13T19:03:37.596Z,99.90
2023-04-13T19:06:24.421Z,99.90
2023-04-13T19:09:12.368Z,99.90
2023-04-13T19:12:02.097Z,99.90
2023-04-13T19:14:48.547Z,99.90
2023-04-13T19:17:34.915Z,99.90
2023-04-13T19:20:23.288Z,99.90
2023-04-13T19:23:09.770Z,99.90
2023-04-13T19:25:57.454Z,99.90
2023-04-13T19:28:43.970Z,99.90
2023-04-13T19:31:30.426Z,99.90
2023-04-13T19:34:17.444Z,99.90
2023-04-13T19:37:03.976Z,99.90
2023-04-13T19:39:50.380Z,99.90
2023-04-13T19:42:38.619Z,99.90
2023-04-13T19:45:27.574Z,99.90
2023-04-13T19:48:14.858Z,99.90
2023-04-13T19:51:01.948Z,99.90
2023-04-13T19:53:49.171Z,99.90
2023-04-13T19:56:36.404Z,99.90
2023-04-13T19:59:24.562Z,99.90
2023-04-13T20:02:11.249Z,99.90
2023-04-13T20:04:57.990Z,99.90
2023-04-13T20:07:44.523Z,99.90
2023-04-13T20:10:31.587Z,99.90
2023-04-13T20:13:18.088Z,99.90
2023-04-13T20:16:06.236Z,99.90
2023-04-13T20:18:52.640Z,99.90
2023-04-13T20:21:41.877Z,99.90
2023-04-13T20:24:28.430Z,99.90
2023-04-13T20:27:14.803Z,99.90
2023-04-13T20:30:01.386Z,99.90
2023-04-13T20:32:49.420Z,99.90
2023-04-13T20:35:36.076Z,99.90
2023-04-13T20:38:22.506Z,99.90
2023-04-13T20:41:10.169Z,99.90
2023-04-13T20:43:56.850Z,99.90
2023-04-13T20:46:49.764Z,99.90
2023-04-13T20:49:37.714Z,99.90
2023-04-13T20:52:25.815Z,99.90
2023-04-13T20:55:12.699Z,99.90
2023-04-13T20:57:59.014Z,99.90
2023-04-13T21:00:45.652Z,99.90
2023-04-13T21:03:32.401Z,99.90
2023-04-13T21:06:22.665Z,99.90
2023-04-13T21:09:09.383Z,99.90
2023-04-13T21:11:56.605Z,99.90
2023-04-13T21:14:43.182Z,99.90
2023-04-13T21:17:31.965Z,99.90
2023-04-13T21:20:18.191Z,99.90
2023-04-13T21:23:06.048Z,99.90
2023-04-13T21:25:52.515Z,99.90
2023-04-13T21:28:38.821Z,99.90
2023-04-13T21:31:25.311Z,99.90
2023-04-13T21:34:11.729Z,99.90
2023-04-13T21:37:00.477Z,99.90
2023-04-13T21:39:48.302Z,99.90
2023-04-13T21:42:35.020Z,99.90
2023-04-13T21:45:21.594Z,99.90
2023-04-13T21:48:08.106Z,99.90
2023-04-13T21:50:55.051Z,99.90
2023-04-13T21:53:41.454Z,99.90
2023-04-13T21:56:30.646Z,99.90
2023-04-13T21:59:17.202Z,99.90
2023-04-13T22:02:03.945Z,99.90
2023-04-13T22:04:51.310Z,99.90
2023-04-13T22:07:42.987Z,99.90
2023-04-13T22:10:29.933Z,99.90
2023-04-13T22:13:17.765Z,99.90
2023-04-13T22:16:04.354Z,99.90
2023-04-13T22:18:52.077Z,99.90
2023-04-13T22:21:39.063Z,99.90
2023-04-13T22:24:25.816Z,99.90
2023-04-13T22:27:12.330Z,99.90
2023-04-13T22:30:00.619Z,99.90
2023-04-13T22:32:47.464Z,99.90
2023-04-13T22:35:35.565Z,99.90
2023-04-13T22:38:22.180Z,99.90
2023-04-13T22:41:08.835Z,99.90
2023-04-13T22:43:55.597Z,99.90
2023-04-13T22:46:43.458Z,99.90
2023-04-13T22:49:30.563Z,99.90
2023-04-13T22:52:19.095Z,99.90
2023-04-13T22:55:06.373Z,99.90
2023-04-13T22:57:53.159Z,99.90
2023-04-13T23:00:39.996Z,99.90
2023-04-13T23:03:28.236Z,99.90
2023-04-13T23:06:15.011Z,99.90
2023-04-13T23:09:01.709Z,99.90
2023-04-13T23:11:48.288Z,99.90
2023-04-13T23:14:34.775Z,99.90
2023-04-13T23:17:21.430Z,99.90
2023-04-13T23:20:10.570Z,99.90
2023-04-13T23:22:57.373Z,99.90
2023-04-13T23:25:44.103Z,99.90
2023-04-13T23:28:30.694Z,99.90
2023-04-13T23:31:17.196Z,99.90
2023-04-13T23:34:03.650Z,99.90
2023-04-13T23:36:51.457Z,99.90
2023-04-13T23:39:38.248Z,99.90
2023-04-13T23:42:24.665Z,99.90
2023-04-13T23:45:12.022Z,99.90
2023-04-13T23:47:58.720Z,99.90
2023-04-13T23:50:45.323Z,99.90
2023-04-13T23:53:33.773Z,99.90
2023-04-13T23:56:20.226Z,99.90
2023-04-13T23:59:06.476Z,99.90
